sensor_id;sensor_type;location;lat;lon;timestamp;pressure;altitude;pressure_sealevel;temperature;humidity
44457;BME280;30159;49.316;8.558;2023-01-29T00:02:03;101729.88;;;1.47;76.91
44457;BME280;30159;49.316;8.558;2023-01-29T00:04:31;101709.34;;;1.41;76.64
44457;BME280;30159;49.316;8.558;2023-01-29T00:06:58;101725.13;;;1.42;77.03
44457;BME280;30159;49.316;8.558;2023-01-29T00:09:25;101720.53;;;1.36;76.72
44457;BME280;30159;49.316;8.558;2023-01-29T00:11:51;101728.13;;;1.39;76.71
44457;BME280;30159;49.316;8.558;2023-01-29T00:14:18;101707.00;;;1.31;76.35
44457;BME280;30159;49.316;8.558;2023-01-29T00:16:45;101714.50;;;1.42;75.98
44457;BME280;30159;49.316;8.558;2023-01-29T00:19:12;101723.38;;;1.50;76.37
44457;BME280;30159;49.316;8.558;2023-01-29T00:21:40;101731.59;;;1.55;76.34
44457;BME280;30159;49.316;8.558;2023-01-29T00:24:07;101725.09;;;1.57;76.71
44457;BME280;30159;49.316;8.558;2023-01-29T00:26:33;101722.38;;;1.72;76.58
44457;BME280;30159;49.316;8.558;2023-01-29T00:29:01;101718.09;;;1.71;75.75
44457;BME280;30159;49.316;8.558;2023-01-29T00:31:28;101707.50;;;1.56;75.76
44457;BME280;30159;49.316;8.558;2023-01-29T00:33:55;101706.06;;;1.39;75.37
44457;BME280;30159;49.316;8.558;2023-01-29T00:36:24;101702.66;;;1.30;76.24
44457;BME280;30159;49.316;8.558;2023-01-29T00:38:55;101716.25;;;1.35;77.03
44457;BME280;30159;49.316;8.558;2023-01-29T00:41:25;101713.59;;;1.35;76.43
44457;BME280;30159;49.316;8.558;2023-01-29T00:44:10;101700.78;;;1.24;76.87
44457;BME280;30159;49.316;8.558;2023-01-29T00:46:54;101722.59;;;1.19;76.35
44457;BME280;30159;49.316;8.558;2023-01-29T00:49:21;101721.00;;;1.25;76.88
44457;BME280;30159;49.316;8.558;2023-01-29T00:51:47;101713.16;;;1.17;76.86
44457;BME280;30159;49.316;8.558;2023-01-29T00:54:36;101718.63;;;1.30;76.89
44457;BME280;30159;49.316;8.558;2023-01-29T00:57:03;101738.25;;;1.29;76.31
44457;BME280;30159;49.316;8.558;2023-01-29T00:59:29;101711.66;;;1.29;76.40
44457;BME280;30159;49.316;8.558;2023-01-29T01:01:56;101706.63;;;1.34;76.70
44457;BME280;30159;49.316;8.558;2023-01-29T01:04:40;101723.28;;;1.43;75.97
44457;BME280;30159;49.316;8.558;2023-01-29T01:07:07;101708.63;;;1.32;76.21
44457;BME280;30159;49.316;8.558;2023-01-29T01:09:36;101605.91;;;0.73;76.81
44457;BME280;30159;49.316;8.558;2023-01-29T01:12:19;101739.75;;;1.53;76.63
44457;BME280;30159;49.316;8.558;2023-01-29T01:14:46;101731.91;;;1.45;76.23
44457;BME280;30159;49.316;8.558;2023-01-29T01:17:13;101707.47;;;1.20;76.50
44457;BME280;30159;49.316;8.558;2023-01-29T01:19:40;101738.88;;;1.31;76.54
44457;BME280;30159;49.316;8.558;2023-01-29T01:22:07;101727.69;;;1.21;76.97
44457;BME280;30159;49.316;8.558;2023-01-29T01:24:33;101737.69;;;1.19;77.34
44457;BME280;30159;49.316;8.558;2023-01-29T01:27:01;101740.16;;;1.35;76.53
44457;BME280;30159;49.316;8.558;2023-01-29T01:29:28;101723.28;;;1.28;76.67
44457;BME280;30159;49.316;8.558;2023-01-29T01:31:54;101728.81;;;1.26;76.79
44457;BME280;30159;49.316;8.558;2023-01-29T01:34:21;101729.16;;;1.23;77.91
44457;BME280;30159;49.316;8.558;2023-01-29T01:36:48;101736.22;;;1.31;76.75
44457;BME280;30159;49.316;8.558;2023-01-29T01:39:15;101733.84;;;1.36;76.52
44457;BME280;30159;49.316;8.558;2023-01-29T01:41:41;101725.78;;;1.30;76.26
44457;BME280;30159;49.316;8.558;2023-01-29T01:47:09;101724.84;;;1.37;76.67
44457;BME280;30159;49.316;8.558;2023-01-29T01:49:36;101725.13;;;1.27;76.92
44457;BME280;30159;49.316;8.558;2023-01-29T01:52:03;101724.13;;;1.29;77.28
44457;BME280;30159;49.316;8.558;2023-01-29T01:54:31;101706.53;;;1.42;77.35
44457;BME280;30159;49.316;8.558;2023-01-29T01:57:01;101555.66;;;0.27;76.71
44457;BME280;30159;49.316;8.558;2023-01-29T01:59:34;101722.81;;;1.39;76.94
44457;BME280;30159;49.316;8.558;2023-01-29T02:02:02;101728.97;;;1.40;76.67
44457;BME280;30159;49.316;8.558;2023-01-29T02:04:48;101715.19;;;1.51;77.05
44457;BME280;30159;49.316;8.558;2023-01-29T02:07:33;101724.84;;;1.52;76.76
44457;BME280;30159;49.316;8.558;2023-01-29T02:10:18;101723.38;;;1.35;77.28
44457;BME280;30159;49.316;8.558;2023-01-29T02:12:46;101720.44;;;1.30;77.31
44457;BME280;30159;49.316;8.558;2023-01-29T02:15:13;101714.13;;;1.16;77.59
44457;BME280;30159;49.316;8.558;2023-01-29T02:17:39;101708.56;;;1.11;78.13
44457;BME280;30159;49.316;8.558;2023-01-29T02:20:11;101723.84;;;1.23;78.48
44457;BME280;30159;49.316;8.558;2023-01-29T02:22:56;101578.94;;;0.40;77.34
44457;BME280;30159;49.316;8.558;2023-01-29T02:25:46;101717.72;;;1.23;77.23
44457;BME280;30159;49.316;8.558;2023-01-29T02:28:29;101721.31;;;1.00;77.76
44457;BME280;30159;49.316;8.558;2023-01-29T02:31:01;101714.44;;;0.91;77.37
44457;BME280;30159;49.316;8.558;2023-01-29T02:33:42;101714.50;;;0.83;77.38
44457;BME280;30159;49.316;8.558;2023-01-29T02:36:19;101708.22;;;0.84;77.66
44457;BME280;30159;49.316;8.558;2023-01-29T02:38:58;101695.00;;;0.76;77.96
44457;BME280;30159;49.316;8.558;2023-01-29T02:41:30;101700.50;;;0.89;77.89
44457;BME280;30159;49.316;8.558;2023-01-29T02:44:05;101689.97;;;0.81;77.42
44457;BME280;30159;49.316;8.558;2023-01-29T02:46:35;101691.25;;;0.85;77.90
44457;BME280;30159;49.316;8.558;2023-01-29T02:49:10;101686.75;;;0.86;78.03
44457;BME280;30159;49.316;8.558;2023-01-29T02:51:43;101693.44;;;0.81;77.98
44457;BME280;30159;49.316;8.558;2023-01-29T02:54:16;101690.16;;;0.79;78.47
44457;BME280;30159;49.316;8.558;2023-01-29T02:56:50;101696.63;;;0.77;78.86
44457;BME280;30159;49.316;8.558;2023-01-29T02:59:21;101691.44;;;0.69;78.75
44457;BME280;30159;49.316;8.558;2023-01-29T03:01:51;101687.19;;;0.59;79.65
44457;BME280;30159;49.316;8.558;2023-01-29T03:04:23;101694.78;;;0.62;79.41
44457;BME280;30159;49.316;8.558;2023-01-29T03:06:54;101696.53;;;0.55;79.17
44457;BME280;30159;49.316;8.558;2023-01-29T03:09:26;101693.88;;;0.55;79.30
44457;BME280;30159;49.316;8.558;2023-01-29T03:11:58;101694.50;;;0.43;79.81
44457;BME280;30159;49.316;8.558;2023-01-29T03:14:46;101695.78;;;0.47;80.08
44457;BME280;30159;49.316;8.558;2023-01-29T03:17:36;101693.31;;;0.45;80.48
44457;BME280;30159;49.316;8.558;2023-01-29T03:20:09;101689.66;;;0.46;80.81
44457;BME280;30159;49.316;8.558;2023-01-29T03:22:39;101692.38;;;0.38;81.22
44457;BME280;30159;49.316;8.558;2023-01-29T03:25:10;101693.81;;;0.26;81.46
44457;BME280;30159;49.316;8.558;2023-01-29T03:27:59;101692.88;;;0.18;82.85
44457;BME280;30159;49.316;8.558;2023-01-29T03:30:49;101697.34;;;0.18;82.88
44457;BME280;30159;49.316;8.558;2023-01-29T03:33:41;101707.03;;;0.11;82.00
44457;BME280;30159;49.316;8.558;2023-01-29T03:36:12;101575.09;;;-0.79;82.56
44457;BME280;30159;49.316;8.558;2023-01-29T03:38:40;101709.50;;;0.12;82.21
44457;BME280;30159;49.316;8.558;2023-01-29T03:41:11;101703.47;;;0.18;82.58
44457;BME280;30159;49.316;8.558;2023-01-29T03:43:46;101675.44;;;0.01;82.78
44457;BME280;30159;49.316;8.558;2023-01-29T03:46:18;101722.00;;;0.27;82.40
44457;BME280;30159;49.316;8.558;2023-01-29T03:48:52;101709.56;;;0.27;82.43
44457;BME280;30159;49.316;8.558;2023-01-29T03:51:25;101710.56;;;0.26;82.08
44457;BME280;30159;49.316;8.558;2023-01-29T03:54:02;101707.97;;;0.18;82.30
44457;BME280;30159;49.316;8.558;2023-01-29T03:56:49;101721.00;;;0.05;83.04
44457;BME280;30159;49.316;8.558;2023-01-29T03:59:30;101718.53;;;0.03;83.38
44457;BME280;30159;49.316;8.558;2023-01-29T04:02:02;101718.13;;;0.14;84.04
44457;BME280;30159;49.316;8.558;2023-01-29T04:04:31;101708.50;;;0.13;84.32
44457;BME280;30159;49.316;8.558;2023-01-29T04:07:05;101710.22;;;0.06;83.92
44457;BME280;30159;49.316;8.558;2023-01-29T04:09:38;101715.28;;;-0.07;83.95
44457;BME280;30159;49.316;8.558;2023-01-29T04:12:07;101715.75;;;-0.04;84.38
44457;BME280;30159;49.316;8.558;2023-01-29T04:14:35;101714.56;;;-0.01;84.48
44457;BME280;30159;49.316;8.558;2023-01-29T04:17:07;101721.84;;;0.05;84.90
44457;BME280;30159;49.316;8.558;2023-01-29T04:19:37;101721.97;;;0.12;85.15
44457;BME280;30159;49.316;8.558;2023-01-29T04:22:06;101730.78;;;0.04;84.34
44457;BME280;30159;49.316;8.558;2023-01-29T04:24:36;101574.00;;;-0.85;84.43
44457;BME280;30159;49.316;8.558;2023-01-29T04:27:16;101709.09;;;0.01;83.43
44457;BME280;30159;49.316;8.558;2023-01-29T04:29:59;101729.72;;;0.13;83.47
44457;BME280;30159;49.316;8.558;2023-01-29T04:32:31;101730.25;;;0.09;83.50
44457;BME280;30159;49.316;8.558;2023-01-29T04:35:10;101725.88;;;0.16;83.43
44457;BME280;30159;49.316;8.558;2023-01-29T04:37:47;101701.28;;;0.07;82.94
44457;BME280;30159;49.316;8.558;2023-01-29T04:40:22;101719.31;;;0.12;82.94
44457;BME280;30159;49.316;8.558;2023-01-29T04:43:00;101717.19;;;0.07;83.62
44457;BME280;30159;49.316;8.558;2023-01-29T04:45:35;101719.84;;;0.07;83.08
44457;BME280;30159;49.316;8.558;2023-01-29T04:48:15;101712.50;;;0.09;82.46
44457;BME280;30159;49.316;8.558;2023-01-29T04:50:49;101585.91;;;-0.81;82.85
44457;BME280;30159;49.316;8.558;2023-01-29T04:53:21;101724.13;;;0.08;82.71
44457;BME280;30159;49.316;8.558;2023-01-29T04:55:53;101725.72;;;0.17;82.87
44457;BME280;30159;49.316;8.558;2023-01-29T04:58:27;101716.41;;;0.22;82.63
44457;BME280;30159;49.316;8.558;2023-01-29T05:00:56;101615.94;;;-0.43;82.63
44457;BME280;30159;49.316;8.558;2023-01-29T05:03:26;101710.44;;;0.43;82.91
44457;BME280;30159;49.316;8.558;2023-01-29T05:05:55;101689.09;;;0.36;82.12
44457;BME280;30159;49.316;8.558;2023-01-29T05:08:24;101699.34;;;0.39;82.20
44457;BME280;30159;49.316;8.558;2023-01-29T05:10:53;101679.78;;;0.40;82.30
44457;BME280;30159;49.316;8.558;2023-01-29T05:13:21;101693.91;;;0.32;82.95
44457;BME280;30159;49.316;8.558;2023-01-29T05:15:51;101669.31;;;0.24;82.72
44457;BME280;30159;49.316;8.558;2023-01-29T05:18:20;101680.25;;;-0.03;83.66
44457;BME280;30159;49.316;8.558;2023-01-29T05:20:49;101529.13;;;-1.10;83.71
44457;BME280;30159;49.316;8.558;2023-01-29T05:23:16;101669.25;;;-0.14;84.59
44457;BME280;30159;49.316;8.558;2023-01-29T05:25:44;101638.28;;;-0.37;84.18
44457;BME280;30159;49.316;8.558;2023-01-29T05:28:11;101677.84;;;-0.12;84.62
44457;BME280;30159;49.316;8.558;2023-01-29T05:30:41;101685.69;;;-0.19;84.77
44457;BME280;30159;49.316;8.558;2023-01-29T05:33:13;101683.22;;;-0.20;84.69
44457;BME280;30159;49.316;8.558;2023-01-29T05:35:40;101686.28;;;-0.09;84.39
44457;BME280;30159;49.316;8.558;2023-01-29T05:38:08;101657.00;;;-0.38;84.30
44457;BME280;30159;49.316;8.558;2023-01-29T05:40:35;101539.75;;;-1.18;85.74
44457;BME280;30159;49.316;8.558;2023-01-29T05:43:02;101701.72;;;-0.12;86.34
44457;BME280;30159;49.316;8.558;2023-01-29T05:45:28;101704.78;;;-0.01;86.64
44457;BME280;30159;49.316;8.558;2023-01-29T05:47:55;101710.34;;;0.13;86.14
44457;BME280;30159;49.316;8.558;2023-01-29T05:50:23;101709.72;;;0.26;85.60
44457;BME280;30159;49.316;8.558;2023-01-29T05:52:55;101709.25;;;0.22;85.06
44457;BME280;30159;49.316;8.558;2023-01-29T05:55:23;101685.13;;;-0.06;84.71
44457;BME280;30159;49.316;8.558;2023-01-29T05:57:49;101716.03;;;0.02;85.52
44457;BME280;30159;49.316;8.558;2023-01-29T06:00:16;101714.66;;;-0.09;85.36
44457;BME280;30159;49.316;8.558;2023-01-29T06:02:43;101714.31;;;-0.14;86.92
44457;BME280;30159;49.316;8.558;2023-01-29T06:05:10;101722.94;;;-0.12;87.66
44457;BME280;30159;49.316;8.558;2023-01-29T06:07:37;101700.00;;;-0.05;88.10
44457;BME280;30159;49.316;8.558;2023-01-29T06:10:04;101702.53;;;0.11;86.67
44457;BME280;30159;49.316;8.558;2023-01-29T06:12:32;101711.75;;;0.24;85.05
44457;BME280;30159;49.316;8.558;2023-01-29T06:14:59;101706.09;;;0.27;85.26
44457;BME280;30159;49.316;8.558;2023-01-29T06:17:25;101697.09;;;0.28;85.50
44457;BME280;30159;49.316;8.558;2023-01-29T06:19:52;101690.72;;;0.37;85.23
44457;BME280;30159;49.316;8.558;2023-01-29T06:22:18;101692.03;;;0.41;84.90
44457;BME280;30159;49.316;8.558;2023-01-29T06:24:45;101690.00;;;0.43;84.46
44457;BME280;30159;49.316;8.558;2023-01-29T06:27:12;101680.91;;;0.23;84.04
44457;BME280;30159;49.316;8.558;2023-01-29T06:29:40;101707.50;;;0.37;84.52
44457;BME280;30159;49.316;8.558;2023-01-29T06:32:06;101573.09;;;-0.46;85.15
44457;BME280;30159;49.316;8.558;2023-01-29T06:34:33;101710.59;;;0.41;85.10
44457;BME280;30159;49.316;8.558;2023-01-29T06:37:00;101705.81;;;0.36;84.44
44457;BME280;30159;49.316;8.558;2023-01-29T06:39:27;101722.00;;;0.27;83.66
44457;BME280;30159;49.316;8.558;2023-01-29T06:41:53;101725.31;;;0.29;83.95
44457;BME280;30159;49.316;8.558;2023-01-29T06:44:20;101722.22;;;0.40;83.70
44457;BME280;30159;49.316;8.558;2023-01-29T06:46:48;101722.28;;;0.32;83.61
44457;BME280;30159;49.316;8.558;2023-01-29T06:49:15;101709.44;;;0.20;83.90
44457;BME280;30159;49.316;8.558;2023-01-29T06:51:41;101721.75;;;0.13;83.84
44457;BME280;30159;49.316;8.558;2023-01-29T06:54:08;101712.09;;;0.20;84.60
44457;BME280;30159;49.316;8.558;2023-01-29T06:56:35;101704.31;;;0.19;83.99
44457;BME280;30159;49.316;8.558;2023-01-29T06:59:02;101715.88;;;0.26;83.95
44457;BME280;30159;49.316;8.558;2023-01-29T07:01:29;101697.94;;;0.28;83.91
44457;BME280;30159;49.316;8.558;2023-01-29T07:03:57;101708.56;;;0.28;83.75
44457;BME280;30159;49.316;8.558;2023-01-29T07:06:26;101717.16;;;0.30;83.42
44457;BME280;30159;49.316;8.558;2023-01-29T07:08:53;101706.00;;;0.35;83.75
44457;BME280;30159;49.316;8.558;2023-01-29T07:11:20;101705.38;;;0.33;83.94
44457;BME280;30159;49.316;8.558;2023-01-29T07:13:46;101700.09;;;0.10;83.95
44457;BME280;30159;49.316;8.558;2023-01-29T07:16:13;101701.97;;;0.01;83.76
44457;BME280;30159;49.316;8.558;2023-01-29T07:18:40;101706.75;;;0.06;84.92
44457;BME280;30159;49.316;8.558;2023-01-29T07:21:07;101709.50;;;0.12;84.07
44457;BME280;30159;49.316;8.558;2023-01-29T07:23:34;101723.06;;;0.17;84.01
44457;BME280;30159;49.316;8.558;2023-01-29T07:26:01;101721.34;;;0.25;84.07
44457;BME280;30159;49.316;8.558;2023-01-29T07:28:28;101728.88;;;0.36;83.83
44457;BME280;30159;49.316;8.558;2023-01-29T07:30:56;101712.59;;;0.39;84.17
44457;BME280;30159;49.316;8.558;2023-01-29T07:33:22;101723.16;;;0.47;83.03
44457;BME280;30159;49.316;8.558;2023-01-29T07:35:49;101716.59;;;0.35;82.96
44457;BME280;30159;49.316;8.558;2023-01-29T07:38:17;101720.81;;;0.29;83.01
44457;BME280;30159;49.316;8.558;2023-01-29T07:40:44;101704.41;;;0.26;82.85
44457;BME280;30159;49.316;8.558;2023-01-29T07:43:11;101729.31;;;0.25;82.81
44457;BME280;30159;49.316;8.558;2023-01-29T07:45:38;101737.09;;;0.26;83.16
44457;BME280;30159;49.316;8.558;2023-01-29T07:48:06;101706.22;;;0.10;83.62
44457;BME280;30159;49.316;8.558;2023-01-29T07:50:35;101738.19;;;0.32;82.95
44457;BME280;30159;49.316;8.558;2023-01-29T07:53:02;101731.53;;;0.36;84.19
44457;BME280;30159;49.316;8.558;2023-01-29T07:55:30;101742.59;;;0.39;83.67
44457;BME280;30159;49.316;8.558;2023-01-29T07:57:59;101732.31;;;0.45;83.24
44457;BME280;30159;49.316;8.558;2023-01-29T08:00:26;101738.97;;;0.40;84.00
44457;BME280;30159;49.316;8.558;2023-01-29T08:02:53;101744.28;;;0.40;83.79
44457;BME280;30159;49.316;8.558;2023-01-29T08:05:20;101685.53;;;-0.17;84.95
44457;BME280;30159;49.316;8.558;2023-01-29T08:07:51;101754.13;;;0.32;86.32
44457;BME280;30159;49.316;8.558;2023-01-29T08:10:18;101732.38;;;0.13;86.76
44457;BME280;30159;49.316;8.558;2023-01-29T08:12:46;101755.47;;;0.28;86.87
44457;BME280;30159;49.316;8.558;2023-01-29T08:15:12;101726.25;;;0.13;87.01
44457;BME280;30159;49.316;8.558;2023-01-29T08:17:39;101774.66;;;0.38;87.95
44457;BME280;30159;49.316;8.558;2023-01-29T08:20:08;101761.13;;;0.48;87.51
44457;BME280;30159;49.316;8.558;2023-01-29T08:22:35;101756.75;;;0.55;86.69
44457;BME280;30159;49.316;8.558;2023-01-29T08:25:02;101774.38;;;0.71;85.56
44457;BME280;30159;49.316;8.558;2023-01-29T08:27:29;101626.78;;;-0.06;84.99
44457;BME280;30159;49.316;8.558;2023-01-29T08:29:57;101763.06;;;1.07;83.53
44457;BME280;30159;49.316;8.558;2023-01-29T08:32:23;101760.22;;;1.23;82.22
44457;BME280;30159;49.316;8.558;2023-01-29T08:34:50;101759.56;;;1.21;82.71
44457;BME280;30159;49.316;8.558;2023-01-29T08:37:17;101766.66;;;1.29;82.08
44457;BME280;30159;49.316;8.558;2023-01-29T08:39:43;101698.31;;;1.08;82.76
44457;BME280;30159;49.316;8.558;2023-01-29T08:42:10;101721.44;;;1.43;83.35
44457;BME280;30159;49.316;8.558;2023-01-29T08:44:36;101740.66;;;1.60;83.38
44457;BME280;30159;49.316;8.558;2023-01-29T08:47:04;101750.38;;;1.68;82.94
44457;BME280;30159;49.316;8.558;2023-01-29T08:49:31;101758.50;;;1.81;83.09
44457;BME280;30159;49.316;8.558;2023-01-29T08:51:58;101743.31;;;1.75;81.94
44457;BME280;30159;49.316;8.558;2023-01-29T08:54:24;101742.34;;;1.83;81.50
44457;BME280;30159;49.316;8.558;2023-01-29T08:56:51;101748.75;;;1.88;79.78
44457;BME280;30159;49.316;8.558;2023-01-29T08:59:18;101727.28;;;1.54;78.28
44457;BME280;30159;49.316;8.558;2023-01-29T09:01:44;101788.25;;;2.06;75.71
44457;BME280;30159;49.316;8.558;2023-01-29T09:04:12;101769.94;;;1.97;76.43
44457;BME280;30159;49.316;8.558;2023-01-29T09:06:39;101790.56;;;1.95;75.03
44457;BME280;30159;49.316;8.558;2023-01-29T09:09:05;101786.13;;;1.65;76.60
44457;BME280;30159;49.316;8.558;2023-01-29T09:11:32;101766.47;;;1.45;76.09
44457;BME280;30159;49.316;8.558;2023-01-29T09:13:59;101756.53;;;1.54;76.29
44457;BME280;30159;49.316;8.558;2023-01-29T09:16:25;101745.66;;;1.85;76.56
44457;BME280;30159;49.316;8.558;2023-01-29T09:18:52;101737.13;;;2.11;77.45
44457;BME280;30159;49.316;8.558;2023-01-29T09:21:20;101681.06;;;2.13;76.50
44457;BME280;30159;49.316;8.558;2023-01-29T09:23:47;101703.88;;;2.50;76.01
44457;BME280;30159;49.316;8.558;2023-01-29T09:26:13;101685.91;;;2.59;76.30
44457;BME280;30159;49.316;8.558;2023-01-29T09:28:40;101638.72;;;2.46;75.76
44457;BME280;30159;49.316;8.558;2023-01-29T09:31:06;101687.81;;;3.00;74.74
44457;BME280;30159;49.316;8.558;2023-01-29T09:33:33;101662.09;;;2.85;73.36
44457;BME280;30159;49.316;8.558;2023-01-29T09:36:01;101715.44;;;3.27;72.85
44457;BME280;30159;49.316;8.558;2023-01-29T09:38:29;101716.31;;;3.41;72.38
44457;BME280;30159;49.316;8.558;2023-01-29T09:41:02;101717.53;;;3.38;70.34
44457;BME280;30159;49.316;8.558;2023-01-29T09:43:39;101717.00;;;3.63;70.79
44457;BME280;30159;49.316;8.558;2023-01-29T09:46:15;101718.47;;;3.72;70.70
44457;BME280;30159;49.316;8.558;2023-01-29T09:48:44;101581.84;;;3.02;69.60
44457;BME280;30159;49.316;8.558;2023-01-29T09:51:14;101727.66;;;3.63;67.71
44457;BME280;30159;49.316;8.558;2023-01-29T09:53:52;101732.16;;;3.14;68.32
44457;BME280;30159;49.316;8.558;2023-01-29T09:56:20;101751.56;;;3.36;68.79
44457;BME280;30159;49.316;8.558;2023-01-29T09:58:55;101737.53;;;3.69;67.17
44457;BME280;30159;49.316;8.558;2023-01-29T10:01:26;101742.09;;;3.88;67.53
44457;BME280;30159;49.316;8.558;2023-01-29T10:04:06;101745.47;;;3.49;67.55
44457;BME280;30159;49.316;8.558;2023-01-29T10:06:50;101751.59;;;2.73;68.18
44457;BME280;30159;49.316;8.558;2023-01-29T10:12:51;101745.34;;;2.38;70.44
44457;BME280;30159;49.316;8.558;2023-01-29T10:15:31;101705.56;;;2.29;70.70
44457;BME280;30159;49.316;8.558;2023-01-29T10:18:11;101762.44;;;3.00;70.46
44457;BME280;30159;49.316;8.558;2023-01-29T10:20:52;101765.50;;;2.75;69.25
44457;BME280;30159;49.316;8.558;2023-01-29T10:23:26;101773.00;;;2.15;70.52
44457;BME280;30159;49.316;8.558;2023-01-29T10:25:54;101762.53;;;2.14;70.69
44457;BME280;30159;49.316;8.558;2023-01-29T10:28:27;101759.50;;;2.38;71.80
44457;BME280;30159;49.316;8.558;2023-01-29T10:30:56;101766.69;;;2.44;71.23
44457;BME280;30159;49.316;8.558;2023-01-29T10:33:28;101753.28;;;2.09;71.79
44457;BME280;30159;49.316;8.558;2023-01-29T10:36:00;101753.53;;;2.15;72.97
44457;BME280;30159;49.316;8.558;2023-01-29T10:38:37;101748.34;;;2.49;72.08
44457;BME280;30159;49.316;8.558;2023-01-29T10:41:16;101746.69;;;2.77;71.07
44457;BME280;30159;49.316;8.558;2023-01-29T10:43:57;101740.19;;;2.58;70.15
44457;BME280;30159;49.316;8.558;2023-01-29T10:46:40;101734.00;;;2.50;71.64
44457;BME280;30159;49.316;8.558;2023-01-29T10:49:23;101733.59;;;2.82;71.96
44457;BME280;30159;49.316;8.558;2023-01-29T10:52:08;101729.19;;;2.95;70.13
44457;BME280;30159;49.316;8.558;2023-01-29T10:54:48;101730.56;;;3.20;70.19
44457;BME280;30159;49.316;8.558;2023-01-29T10:57:33;101726.28;;;2.90;68.68
44457;BME280;30159;49.316;8.558;2023-01-29T11:00:12;101717.44;;;2.55;70.83
44457;BME280;30159;49.316;8.558;2023-01-29T11:02:44;101724.03;;;2.59;71.50
44457;BME280;30159;49.316;8.558;2023-01-29T11:05:18;101742.19;;;2.77;70.48
44457;BME280;30159;49.316;8.558;2023-01-29T11:07:46;101714.31;;;2.80;71.38
44457;BME280;30159;49.316;8.558;2023-01-29T11:10:14;101710.38;;;3.04;71.40
44457;BME280;30159;49.316;8.558;2023-01-29T11:12:43;101689.41;;;3.29;71.93
44457;BME280;30159;49.316;8.558;2023-01-29T11:15:17;101688.47;;;3.63;71.24
44457;BME280;30159;49.316;8.558;2023-01-29T11:18:07;101696.31;;;3.91;70.02
44457;BME280;30159;49.316;8.558;2023-01-29T11:20:38;101684.25;;;4.09;70.87
44457;BME280;30159;49.316;8.558;2023-01-29T11:23:05;101683.00;;;4.05;69.79
44457;BME280;30159;49.316;8.558;2023-01-29T11:25:31;101556.09;;;3.42;69.21
44457;BME280;30159;49.316;8.558;2023-01-29T11:27:59;101664.72;;;4.28;69.33
44457;BME280;30159;49.316;8.558;2023-01-29T11:30:30;101658.56;;;3.88;67.35
44457;BME280;30159;49.316;8.558;2023-01-29T11:33:05;101662.13;;;3.40;69.11
44457;BME280;30159;49.316;8.558;2023-01-29T11:35:33;101653.88;;;3.28;70.01
44457;BME280;30159;49.316;8.558;2023-01-29T11:38:17;101645.97;;;3.00;69.42
44457;BME280;30159;49.316;8.558;2023-01-29T11:40:44;101652.50;;;2.91;70.11
44457;BME280;30159;49.316;8.558;2023-01-29T11:43:17;101660.56;;;3.04;70.43
44457;BME280;30159;49.316;8.558;2023-01-29T11:45:46;101657.75;;;3.12;70.63
44457;BME280;30159;49.316;8.558;2023-01-29T11:48:16;101649.16;;;2.76;70.49
44457;BME280;30159;49.316;8.558;2023-01-29T11:50:50;101639.13;;;2.84;73.30
44457;BME280;30159;49.316;8.558;2023-01-29T11:53:25;101614.63;;;2.61;71.29
44457;BME280;30159;49.316;8.558;2023-01-29T11:55:53;101620.56;;;2.98;73.42
44457;BME280;30159;49.316;8.558;2023-01-29T11:58:25;101485.88;;;2.34;70.94
44457;BME280;30159;49.316;8.558;2023-01-29T12:00:56;101572.19;;;3.07;71.80
44457;BME280;30159;49.316;8.558;2023-01-29T12:03:31;101593.03;;;3.52;72.25
44457;BME280;30159;49.316;8.558;2023-01-29T12:06:01;101588.34;;;3.80;72.30
44457;BME280;30159;49.316;8.558;2023-01-29T12:08:34;101585.25;;;3.84;70.77
44457;BME280;30159;49.316;8.558;2023-01-29T12:11:10;101582.19;;;3.93;70.29
44457;BME280;30159;49.316;8.558;2023-01-29T12:13:38;101567.81;;;3.88;69.83
44457;BME280;30159;49.316;8.558;2023-01-29T12:16:19;101583.84;;;3.94;70.42
44457;BME280;30159;49.316;8.558;2023-01-29T12:18:51;101572.53;;;3.92;69.48
44457;BME280;30159;49.316;8.558;2023-01-29T12:21:23;101449.84;;;3.12;69.65
44457;BME280;30159;49.316;8.558;2023-01-29T12:23:56;101564.94;;;3.76;71.05
44457;BME280;30159;49.316;8.558;2023-01-29T12:26:30;101560.00;;;3.73;69.95
44457;BME280;30159;49.316;8.558;2023-01-29T12:29:11;101550.56;;;3.77;70.47
44457;BME280;30159;49.316;8.558;2023-01-29T12:31:49;101529.63;;;3.41;69.89
44457;BME280;30159;49.316;8.558;2023-01-29T12:34:23;101553.63;;;3.47;71.12
44457;BME280;30159;49.316;8.558;2023-01-29T12:36:57;101422.28;;;2.65;70.15
44457;BME280;30159;49.316;8.558;2023-01-29T12:39:26;101539.91;;;3.64;70.83
44457;BME280;30159;49.316;8.558;2023-01-29T12:41:56;101537.66;;;3.74;69.80
44457;BME280;30159;49.316;8.558;2023-01-29T12:44:31;101537.84;;;3.92;70.34
44457;BME280;30159;49.316;8.558;2023-01-29T12:47:05;101529.00;;;4.05;70.05
44457;BME280;30159;49.316;8.558;2023-01-29T12:49:34;101523.50;;;3.80;69.78
44457;BME280;30159;49.316;8.558;2023-01-29T12:52:08;101529.22;;;4.04;70.37
44457;BME280;30159;49.316;8.558;2023-01-29T12:54:41;101528.13;;;4.31;69.37
44457;BME280;30159;49.316;8.558;2023-01-29T12:57:18;101431.16;;;3.39;69.58
44457;BME280;30159;49.316;8.558;2023-01-29T12:59:52;101404.50;;;2.86;70.45
44457;BME280;30159;49.316;8.558;2023-01-29T13:02:31;101513.00;;;3.85;70.64
44457;BME280;30159;49.316;8.558;2023-01-29T13:05:02;101512.34;;;4.10;70.59
44457;BME280;30159;49.316;8.558;2023-01-29T13:07:33;101520.94;;;4.25;69.87
44457;BME280;30159;49.316;8.558;2023-01-29T13:10:08;101498.00;;;3.97;69.57
44457;BME280;30159;49.316;8.558;2023-01-29T13:12:36;101524.63;;;4.24;70.08
44457;BME280;30159;49.316;8.558;2023-01-29T13:15:14;101418.41;;;3.61;68.86
44457;BME280;30159;49.316;8.558;2023-01-29T13:17:47;101474.78;;;3.98;69.16
44457;BME280;30159;49.316;8.558;2023-01-29T13:20:18;101509.06;;;4.08;69.15
44457;BME280;30159;49.316;8.558;2023-01-29T13:22:49;101507.06;;;3.96;70.18
44457;BME280;30159;49.316;8.558;2023-01-29T13:25:19;101509.09;;;3.94;69.53
44457;BME280;30159;49.316;8.558;2023-01-29T13:27:46;101504.19;;;3.65;69.07